Time;durP1;ratioP1;P1;durP2;ratioP2;P2;SDS_P1;SDS_P2;PMS_P1;PMS_P2;Temp;Humidity;BMP_temperature;BMP_pressure;BME280_temperature;BME280_humidity;BME280_pressure;Samples;Min_cycle;Max_cycle;Signal;HPM_P1;HPM_P2
2024/02/18 00:00:51;;;;;;;11.02;5.20;;;12.50;99.90;;;;;;5032834;28;20061;-78
2024/02/18 00:03:17;;;;;;;8.60;4.90;;;12.50;99.90;;;;;;5032762;28;20052;-79
2024/02/18 00:05:42;;;;;;;12.77;5.40;;;12.50;99.90;;;;;;5030500;28;20114;-77
2024/02/18 00:08:08;;;;;;;10.35;5.03;;;12.40;99.90;;;;;;5032070;28;20433;-79
2024/02/18 00:10:34;;;;;;;11.10;5.15;;;12.40;99.90;;;;;;5030453;28;20092;-78
2024/02/18 00:12:59;;;;;;;16.85;4.88;;;12.40;99.90;;;;;;5033199;28;20486;-79
2024/02/18 00:15:25;;;;;;;9.55;4.53;;;12.50;99.90;;;;;;5031567;28;20514;-78
2024/02/18 00:17:51;;;;;;;15.73;4.75;;;12.40;99.90;;;;;;5031871;28;20352;-78
2024/02/18 00:20:16;;;;;;;12.00;4.43;;;12.40;99.90;;;;;;5018546;28;20367;-78
2024/02/18 00:22:42;;;;;;;7.45;3.90;;;12.40;99.90;;;;;;5026865;28;20036;-78
2024/02/18 00:25:08;;;;;;;10.63;4.32;;;12.50;99.90;;;;;;5031525;28;20034;-79
2024/02/18 00:27:34;;;;;;;10.07;4.28;;;12.50;99.90;;;;;;5027100;28;20347;-78
2024/02/18 00:30:00;;;;;;;7.90;3.92;;;12.40;99.90;;;;;;5019568;28;20483;-78
2024/02/18 00:32:25;;;;;;;13.95;4.30;;;12.50;99.90;;;;;;5023732;28;20021;-78
2024/02/18 00:34:51;;;;;;;13.18;3.90;;;12.50;99.90;;;;;;5024251;28;20479;-78
2024/02/18 00:37:20;;;;;;;8.43;3.53;;;12.40;99.90;;;;;;5031739;28;20009;-78
2024/02/18 00:39:45;;;;;;;11.77;3.60;;;12.30;99.90;;;;;;5031896;28;20455;-78
2024/02/18 00:42:11;;;;;;;11.40;3.85;;;12.20;99.90;;;;;;5031799;28;20029;-78
2024/02/18 00:44:37;;;;;;;11.45;3.88;;;12.20;99.90;;;;;;5031211;28;20049;-78
2024/02/18 00:47:04;;;;;;;10.40;3.70;;;12.20;99.90;;;;;;5028363;28;20049;-78
2024/02/18 00:49:30;;;;;;;13.07;3.42;;;12.20;99.90;;;;;;5030585;28;20044;-78
2024/02/18 00:51:56;;;;;;;11.50;3.70;;;12.30;99.90;;;;;;5032216;28;20022;-78
2024/02/18 00:54:22;;;;;;;8.50;3.20;;;12.20;99.90;;;;;;5030625;28;20033;-78
2024/02/18 00:56:47;;;;;;;8.45;3.67;;;12.20;99.90;;;;;;5029278;28;20053;-79
2024/02/18 00:59:13;;;;;;;9.73;3.75;;;12.20;99.90;;;;;;5025116;28;20029;-77
2024/02/18 01:01:39;;;;;;;10.18;3.45;;;12.10;99.90;;;;;;5032382;28;20037;-78
2024/02/18 01:04:05;;;;;;;11.88;3.50;;;12.10;99.90;;;;;;5030830;28;20037;-78
2024/02/18 01:06:30;;;;;;;12.48;3.75;;;12.20;99.90;;;;;;5030351;28;20022;-78
2024/02/18 01:08:56;;;;;;;10.90;3.47;;;12.20;99.90;;;;;;5027435;28;20040;-78
2024/02/18 01:11:22;;;;;;;9.88;3.40;;;12.20;99.90;;;;;;5029419;28;20026;-78
2024/02/18 01:13:47;;;;;;;8.10;3.33;;;12.20;99.90;;;;;;5031338;28;20048;-78
2024/02/18 01:16:13;;;;;;;9.30;3.97;;;12.20;99.90;;;;;;5031314;28;20059;-78
2024/02/18 01:18:40;;;;;;;11.30;3.97;;;12.20;99.90;;;;;;5030910;28;20402;-78
2024/02/18 01:21:06;;;;;;;10.65;3.47;;;12.20;99.90;;;;;;5031940;28;20119;-78
2024/02/18 01:23:32;;;;;;;7.55;2.92;;;12.20;99.90;;;;;;5017495;28;20026;-78
2024/02/18 01:25:58;;;;;;;9.68;2.80;;;12.20;99.90;;;;;;5031135;28;20033;-78
2024/02/18 01:28:25;;;;;;;8.35;2.80;;;12.30;99.90;;;;;;5022889;28;20096;-76
2024/02/18 01:30:51;;;;;;;9.90;3.53;;;12.20;99.90;;;;;;5031854;28;20037;-78
2024/02/18 01:33:17;;;;;;;10.50;3.30;;;12.30;99.90;;;;;;5031206;28;20025;-78
2024/02/18 01:35:43;;;;;;;12.20;3.13;;;12.20;99.90;;;;;;5031982;28;20033;-78
2024/02/18 01:38:11;;;;;;;9.45;3.00;;;12.30;99.90;;;;;;5030397;28;20496;-78
2024/02/18 01:40:38;;;;;;;6.55;2.75;;;12.30;99.90;;;;;;5031633;28;20033;-78
2024/02/18 01:43:04;;;;;;;12.63;4.63;;;12.20;99.90;;;;;;5031759;28;20029;-78
2024/02/18 01:45:30;;;;;;;8.57;3.67;;;12.30;99.90;;;;;;5031487;28;20094;-78
2024/02/18 01:47:56;;;;;;;17.27;3.60;;;12.20;99.90;;;;;;5031719;28;20422;-78
2024/02/18 01:50:23;;;;;;;11.10;3.55;;;12.20;99.90;;;;;;5031098;28;20037;-78
2024/02/18 01:52:52;;;;;;;15.60;3.83;;;12.30;99.90;;;;;;5031172;28;20208;-78
2024/02/18 01:55:20;;;;;;;8.07;2.85;;;12.30;99.90;;;;;;5029926;28;20401;-77
2024/02/18 01:57:46;;;;;;;7.78;2.72;;;12.30;99.90;;;;;;5028949;28;20028;-78
2024/02/18 02:00:15;;;;;;;5.80;3.30;;;12.30;99.90;;;;;;5031234;28;20082;-77
2024/02/18 02:02:45;;;;;;;12.88;3.83;;;12.20;99.90;;;;;;5031076;28;20067;-78
2024/02/18 02:05:18;;;;;;;9.18;3.10;;;12.20;99.90;;;;;;5030090;28;20036;-78
2024/02/18 02:07:44;;;;;;;;;;;12.20;99.90;;;;;;5031594;28;20108;-78
2024/02/18 02:10:12;;;;;;;7.60;2.80;;;12.20;99.90;;;;;;5029905;28;20066;-78
2024/02/18 02:12:40;;;;;;;10.90;3.38;;;12.20;99.90;;;;;;5031882;28;20028;-77
2024/02/18 02:15:07;;;;;;;15.32;3.92;;;12.10;99.90;;;;;;5035081;28;20045;-77
2024/02/18 02:17:33;;;;;;;7.60;3.25;;;12.10;99.90;;;;;;5033933;28;20018;-78
2024/02/18 02:19:58;;;;;;;7.70;3.22;;;12.00;99.90;;;;;;5034542;28;20381;-78
2024/02/18 02:22:24;;;;;;;8.43;3.30;;;12.10;99.90;;;;;;5026554;28;20097;-76
2024/02/18 02:24:50;;;;;;;9.07;3.28;;;12.10;99.90;;;;;;5034943;28;20041;-78
2024/02/18 02:27:20;;;;;;;10.50;3.10;;;12.10;99.90;;;;;;5030164;28;20553;-78
2024/02/18 02:29:47;;;;;;;7.22;3.10;;;12.20;99.90;;;;;;5035200;28;20024;-77
2024/02/18 02:32:13;;;;;;;11.32;3.30;;;12.10;99.90;;;;;;5034626;28;20064;-77
2024/02/18 02:34:39;;;;;;;9.80;3.15;;;12.00;99.90;;;;;;5034118;28;20018;-78
2024/02/18 02:37:05;;;;;;;12.73;3.45;;;12.10;99.90;;;;;;5034789;28;20055;-77
2024/02/18 02:39:30;;;;;;;9.32;3.40;;;12.00;99.90;;;;;;5035083;28;20020;-77
2024/02/18 02:41:56;;;;;;;11.02;3.42;;;12.00;99.90;;;;;;5033909;28;20700;-77
2024/02/18 02:44:22;;;;;;;11.27;3.72;;;12.10;99.90;;;;;;5034007;28;20069;-78
2024/02/18 02:46:48;;;;;;;7.28;3.00;;;12.10;99.90;;;;;;5033400;28;20031;-78
2024/02/18 02:49:14;;;;;;;7.18;2.72;;;12.10;99.90;;;;;;5034570;28;20025;-78
2024/02/18 02:51:43;;;;;;;8.13;3.10;;;12.20;99.90;;;;;;5034164;28;20036;-78
2024/02/18 02:54:08;;;;;;;11.98;3.55;;;12.20;99.90;;;;;;5033849;28;20033;-77
2024/02/18 02:56:34;;;;;;;6.30;3.05;;;12.20;99.90;;;;;;5033142;28;20040;-75
2024/02/18 02:59:00;;;;;;;6.03;3.25;;;12.20;99.90;;;;;;5024304;28;20025;-76
2024/02/18 03:01:25;;;;;;;13.38;3.10;;;12.20;99.90;;;;;;5034167;28;20026;-78
2024/02/18 03:03:51;;;;;;;8.85;3.00;;;12.20;99.90;;;;;;5034272;28;20501;-77
2024/02/18 03:06:17;;;;;;;10.00;3.10;;;12.20;99.90;;;;;;5034306;28;20505;-78
2024/02/18 03:08:45;;;;;;;11.45;3.55;;;12.20;99.90;;;;;;5033773;28;20029;-77
2024/02/18 03:11:11;;;;;;;10.25;3.55;;;12.20;99.90;;;;;;5034332;28;20026;-78
2024/02/18 03:13:37;;;;;;;6.53;3.30;;;12.10;99.90;;;;;;5034325;28;20033;-78
2024/02/18 03:16:03;;;;;;;9.45;2.83;;;12.00;99.90;;;;;;5034162;28;20545;-77
2024/02/18 03:18:29;;;;;;;7.95;3.78;;;12.10;99.90;;;;;;5033038;28;20048;-76
2024/02/18 03:20:55;;;;;;;9.63;3.30;;;12.10;99.90;;;;;;5034056;28;20022;-76
2024/02/18 03:23:20;;;;;;;9.23;3.25;;;12.10;99.90;;;;;;5024619;28;20370;-77
2024/02/18 03:25:47;;;;;;;8.73;3.20;;;12.10;99.90;;;;;;5032521;28;20107;-78
2024/02/18 03:28:13;;;;;;;11.05;3.38;;;12.10;99.90;;;;;;5026732;28;20096;-78
2024/02/18 03:30:40;;;;;;;10.82;3.53;;;12.10;99.90;;;;;;5034103;28;20083;-78
2024/02/18 03:33:06;;;;;;;9.63;3.58;;;12.10;99.90;;;;;;5033729;28;20013;-79
2024/02/18 03:35:31;;;;;;;9.25;2.65;;;12.00;99.90;;;;;;5033666;28;20021;-78
2024/02/18 03:37:57;;;;;;;8.32;3.35;;;12.10;99.90;;;;;;5032911;28;20029;-76
2024/02/18 03:40:24;;;;;;;13.63;3.63;;;12.10;99.90;;;;;;5032320;28;20029;-76
2024/02/18 03:42:50;;;;;;;11.13;2.72;;;12.20;99.90;;;;;;5033742;28;20037;-77
2024/02/18 03:45:16;;;;;;;10.43;2.90;;;12.20;99.90;;;;;;5032784;28;20052;-77
2024/02/18 03:47:43;;;;;;;8.25;3.33;;;12.10;99.90;;;;;;5033680;28;20021;-77
2024/02/18 03:50:14;;;;;;;10.48;3.30;;;12.10;99.90;;;;;;5033362;28;20022;-78
2024/02/18 03:52:43;;;;;;;10.18;3.08;;;12.20;99.90;;;;;;5033409;28;20053;-77
2024/02/18 03:55:13;;;;;;;10.88;3.83;;;12.20;99.90;;;;;;5032985;28;20017;-77
2024/02/18 03:57:40;;;;;;;7.85;3.00;;;12.10;99.90;;;;;;5023242;28;20017;-77
2024/02/18 04:00:07;;;;;;;10.02;3.70;;;12.10;99.90;;;;;;5030888;28;20033;-77
2024/02/18 04:02:35;;;;;;;8.60;3.10;;;12.10;99.90;;;;;;5033362;28;20029;-77
2024/02/18 04:05:03;;;;;;;6.95;3.47;;;12.10;99.90;;;;;;5033032;28;20033;-78
2024/02/18 04:07:29;;;;;;;13.40;3.90;;;12.20;99.90;;;;;;5033369;28;20018;-76
2024/02/18 04:09:55;;;;;;;7.38;2.95;;;12.10;99.90;;;;;;5031665;28;20032;-78
2024/02/18 04:12:22;;;;;;;12.32;3.60;;;12.10;99.90;;;;;;5033352;28;20018;-77
2024/02/18 04:14:48;;;;;;;9.52;3.63;;;12.10;99.90;;;;;;5032704;28;20029;-77
2024/02/18 04:17:14;;;;;;;10.73;3.42;;;12.10;99.90;;;;;;5032257;28;20025;-77
2024/02/18 04:19:40;;;;;;;8.50;4.00;;;12.10;99.90;;;;;;5032744;28;20029;-77
2024/02/18 04:22:06;;;;;;;17.50;4.07;;;12.10;99.90;;;;;;5025923;28;20464;-77
2024/02/18 04:24:32;;;;;;;10.20;3.55;;;12.10;99.90;;;;;;5030647;28;20028;-77
2024/02/18 04:26:59;;;;;;;10.80;3.80;;;12.10;99.90;;;;;;5032409;28;20024;-77
2024/02/18 04:29:25;;;;;;;10.38;4.75;;;12.00;99.90;;;;;;5032688;28;20018;-76
2024/02/18 04:31:51;;;;;;;10.35;4.22;;;12.00;99.90;;;;;;5032903;28;20018;-76
2024/02/18 04:34:17;;;;;;;14.35;4.15;;;12.10;99.90;;;;;;5032222;28;20048;-76
2024/02/18 04:36:47;;;;;;;9.07;3.78;;;12.00;99.90;;;;;;5032727;28;20108;-77
2024/02/18 04:39:12;;;;;;;13.63;4.40;;;12.00;99.90;;;;;;5031700;28;20017;-77
2024/02/18 04:41:38;;;;;;;9.63;3.67;;;11.90;99.90;;;;;;5033248;28;20036;-77
2024/02/18 04:44:04;;;;;;;10.68;4.05;;;11.90;99.90;;;;;;5031707;28;20651;-77
2024/02/18 04:46:29;;;;;;;15.25;3.88;;;11.90;99.90;;;;;;5030111;28;20506;-74
2024/02/18 04:48:58;;;;;;;10.85;4.00;;;11.90;99.90;;;;;;5020276;28;20038;-78
2024/02/18 04:51:24;;;;;;;5.55;3.15;;;11.80;99.90;;;;;;5025898;28;20021;-77
2024/02/18 04:53:50;;;;;;;7.88;3.53;;;11.70;99.90;;;;;;5033092;28;20029;-76
2024/02/18 04:56:15;;;;;;;13.40;4.60;;;11.70;99.90;;;;;;5032476;28;20498;-78
2024/02/18 04:58:41;;;;;;;10.48;3.85;;;11.70;99.90;;;;;;5031305;28;20018;-78
2024/02/18 05:01:10;;;;;;;9.35;3.67;;;11.70;99.90;;;;;;5031333;28;20034;-78
2024/02/18 05:03:35;;;;;;;10.50;3.53;;;11.60;99.90;;;;;;5018896;28;20083;-77
2024/02/18 05:06:01;;;;;;;8.43;4.30;;;11.60;99.90;;;;;;5031849;28;20029;-77
2024/02/18 05:08:27;;;;;;;14.23;4.55;;;11.60;99.90;;;;;;5032943;28;20017;-75
2024/02/18 05:10:52;;;;;;;13.35;4.35;;;11.60;99.90;;;;;;5030835;28;20029;-77
2024/02/18 05:13:18;;;;;;;10.27;3.50;;;11.60;99.90;;;;;;5031996;28;20025;-78
2024/02/18 05:15:46;;;;;;;14.65;4.15;;;11.60;99.90;;;;;;5032177;28;20029;-77
2024/02/18 05:18:12;;;;;;;10.55;3.80;;;11.60;99.90;;;;;;5032653;28;20116;-78
2024/02/18 05:20:37;;;;;;;12.68;3.72;;;11.60;99.90;;;;;;5032491;28;20101;-78
2024/02/18 05:23:03;;;;;;;11.02;3.60;;;11.70;99.90;;;;;;5029034;28;20045;-77
2024/02/18 05:25:29;;;;;;;12.30;3.67;;;11.60;99.90;;;;;;5031652;28;20047;-77
2024/02/18 05:27:54;;;;;;;8.88;3.30;;;11.50;99.90;;;;;;5031680;28;20036;-74
2024/02/18 05:30:20;;;;;;;12.02;4.05;;;11.50;99.90;;;;;;5031685;28;20150;-76
2024/02/18 05:32:46;;;;;;;8.52;3.33;;;11.50;99.90;;;;;;5032157;28;20112;-77
2024/02/18 05:35:11;;;;;;;11.68;3.67;;;11.60;99.90;;;;;;5031668;28;20471;-76
2024/02/18 05:37:37;;;;;;;12.90;4.45;;;11.50;99.90;;;;;;5031916;28;20544;-77
2024/02/18 05:40:04;;;;;;;12.85;4.07;;;11.50;99.90;;;;;;5030259;28;20033;-76
2024/02/18 05:42:30;;;;;;;12.50;4.53;;;11.50;99.90;;;;;;5030685;28;20463;-74
2024/02/18 05:44:55;;;;;;;10.30;3.30;;;11.40;99.90;;;;;;5031267;28;20034;-77
2024/02/18 05:47:21;;;;;;;9.02;3.60;;;11.40;99.90;;;;;;5029845;28;20013;-77
2024/02/18 05:49:47;;;;;;;9.52;3.28;;;11.40;99.90;;;;;;5032951;28;20521;-76
2024/02/18 05:52:12;;;;;;;10.00;3.75;;;11.50;99.90;;;;;;5025268;28;20494;-76
2024/02/18 05:54:38;;;;;;;9.50;3.45;;;11.50;99.90;;;;;;5036109;28;20470;-77
2024/02/18 05:57:05;;;;;;;14.43;3.33;;;11.40;99.90;;;;;;5034847;28;20021;-76
2024/02/18 05:59:31;;;;;;;11.23;3.35;;;11.40;99.90;;;;;;5034695;28;20433;-76
2024/02/18 06:01:57;;;;;;;9.15;3.80;;;11.20;99.90;;;;;;5035782;28;20486;-76
2024/02/18 06:04:22;;;;;;;10.32;3.85;;;11.30;99.90;;;;;;5035310;28;20064;-74
2024/02/18 06:06:48;;;;;;;14.50;3.45;;;11.30;99.90;;;;;;5035128;28;20097;-76
2024/02/18 06:09:14;;;;;;;9.75;3.95;;;11.30;99.90;;;;;;5035558;28;20075;-75
2024/02/18 06:11:39;;;;;;;8.32;3.53;;;11.30;99.90;;;;;;5030077;28;20566;-72
2024/02/18 06:14:05;;;;;;;9.60;3.30;;;11.30;99.90;;;;;;5033703;28;20096;-76
2024/02/18 06:16:30;;;;;;;7.57;3.03;;;11.30;99.90;;;;;;5034614;28;20029;-73
2024/02/18 06:18:56;;;;;;;10.77;3.38;;;11.20;99.90;;;;;;5035752;28;20026;-76
2024/02/18 06:21:22;;;;;;;17.77;8.68;;;11.20;99.90;;;;;;5035077;28;20030;-75
2024/02/18 06:23:48;;;;;;;10.93;3.17;;;11.30;99.90;;;;;;5034469;28;20490;-75
2024/02/18 06:26:15;;;;;;;14.43;3.88;;;11.20;99.90;;;;;;5034441;28;20029;-75
2024/02/18 06:28:41;;;;;;;10.25;3.50;;;11.10;99.90;;;;;;5034332;28;20021;-74
2024/02/18 06:31:07;;;;;;;10.55;3.20;;;11.20;99.90;;;;;;5033899;28;20025;-76
2024/02/18 06:33:33;;;;;;;8.18;3.47;;;11.20;99.90;;;;;;5031106;28;20378;-75
2024/02/18 06:35:58;;;;;;;14.65;3.78;;;11.20;99.90;;;;;;5035000;28;20025;-75
2024/02/18 06:38:24;;;;;;;10.52;4.15;;;11.20;99.90;;;;;;5035106;28;20364;-74
2024/02/18 06:40:50;;;;;;;15.65;4.65;;;11.20;99.90;;;;;;5021679;28;20053;-75
2024/02/18 06:43:16;;;;;;;13.77;3.95;;;11.20;99.90;;;;;;5034517;28;20048;-75
2024/02/18 06:45:41;;;;;;;10.02;3.58;;;11.20;99.90;;;;;;5035034;28;20120;-76
2024/02/18 06:48:07;;;;;;;10.90;4.63;;;11.20;99.90;;;;;;5034560;28;20115;-72
2024/02/18 06:50:33;;;;;;;11.30;3.80;;;11.20;99.90;;;;;;5035321;28;20095;-76
2024/02/18 06:52:58;;;;;;;9.23;3.63;;;11.20;99.90;;;;;;5035252;28;20482;-77
2024/02/18 06:55:24;;;;;;;13.45;3.90;;;11.20;99.90;;;;;;5034329;28;20472;-76
2024/02/18 06:57:50;;;;;;;11.73;3.83;;;11.20;99.90;;;;;;5034363;28;20513;-78
2024/02/18 07:00:16;;;;;;;10.30;4.00;;;11.10;99.90;;;;;;5032015;28;20031;-80
2024/02/18 07:02:43;;;;;;;10.30;4.03;;;11.20;99.90;;;;;;5028804;28;20467;-81
2024/02/18 07:05:09;;;;;;;12.70;3.67;;;11.20;99.90;;;;;;5033019;28;20030;-79
2024/02/18 07:07:37;;;;;;;16.10;4.10;;;11.00;99.90;;;;;;5029936;28;20135;-80
2024/02/18 07:10:03;;;;;;;14.05;4.38;;;11.00;99.90;;;;;;5032596;28;20028;-76
2024/02/18 07:12:29;;;;;;;10.35;3.75;;;11.00;99.90;;;;;;5032198;28;20116;-77
2024/02/18 07:14:55;;;;;;;9.60;3.75;;;11.00;99.90;;;;;;5034912;28;20045;-76
2024/02/18 07:17:21;;;;;;;14.18;3.88;;;10.90;99.90;;;;;;5034611;28;20037;-73
2024/02/18 07:19:48;;;;;;;9.95;4.28;;;11.00;99.90;;;;;;5030381;28;20040;-77
2024/02/18 07:22:15;;;;;;;17.80;4.70;;;10.90;99.90;;;;;;5027212;28;20033;-74
2024/02/18 07:24:41;;;;;;;12.13;4.35;;;11.10;99.90;;;;;;5030463;28;20036;-77
2024/02/18 07:27:07;;;;;;;13.20;4.00;;;11.00;99.90;;;;;;5022059;28;20029;-79
2024/02/18 07:29:32;;;;;;;10.40;3.67;;;11.00;99.90;;;;;;5031694;28;20048;-77
2024/02/18 07:31:58;;;;;;;9.63;3.78;;;11.00;99.90;;;;;;5032258;28;20021;-75
2024/02/18 07:34:23;;;;;;;10.00;4.25;;;10.90;99.90;;;;;;5026396;28;20037;-78
2024/02/18 07:36:49;;;;;;;12.00;4.32;;;11.10;99.90;;;;;;5028329;28;20030;-77
2024/02/18 07:39:15;;;;;;;13.15;3.83;;;11.00;99.90;;;;;;5024518;28;20459;-77
2024/02/18 07:41:40;;;;;;;10.77;3.95;;;11.10;99.90;;;;;;5031635;28;20108;-75
2024/02/18 07:44:07;;;;;;;10.77;3.85;;;11.10;99.90;;;;;;5037451;28;20033;-76
2024/02/18 07:46:33;;;;;;;12.77;3.85;;;11.10;99.90;;;;;;5038084;28;20036;-81
2024/02/18 07:48:58;;;;;;;10.13;3.85;;;10.90;99.90;;;;;;5030775;28;20026;-76
2024/02/18 07:51:27;;;;;;;10.98;3.92;;;11.00;99.90;;;;;;5033043;28;20014;-74
2024/02/18 07:53:55;;;;;;;10.05;4.25;;;11.00;99.90;;;;;;5031153;28;20029;-74
2024/02/18 07:56:21;;;;;;;8.48;3.85;;;11.00;99.90;;;;;;5031195;28;20017;-73
2024/02/18 07:58:46;;;;;;;9.68;3.67;;;11.10;99.90;;;;;;5031622;28;20597;-73
2024/02/18 08:01:12;;;;;;;11.95;4.20;;;11.00;99.90;;;;;;5042076;28;20449;-73
2024/02/18 08:03:38;;;;;;;11.65;4.10;;;11.00;99.90;;;;;;5031501;28;20014;-74
2024/02/18 08:06:04;;;;;;;13.90;4.00;;;11.00;99.90;;;;;;5030402;28;20478;-74
2024/02/18 08:08:29;;;;;;;9.75;3.45;;;11.00;99.90;;;;;;5031436;28;20471;-74
2024/02/18 08:10:55;;;;;;;16.42;4.75;;;10.90;99.90;;;;;;5030723;28;20029;-73
2024/02/18 08:13:22;;;;;;;16.45;4.28;;;11.00;99.90;;;;;;5033336;28;20451;-75
2024/02/18 08:15:48;;;;;;;8.52;3.33;;;10.90;99.90;;;;;;5032651;28;20036;-75
2024/02/18 08:18:13;;;;;;;13.95;4.72;;;10.90;99.90;;;;;;5045639;28;20021;-74
2024/02/18 08:20:39;;;;;;;9.32;3.45;;;10.70;99.90;;;;;;5033195;28;20032;-74
2024/02/18 08:23:06;;;;;;;9.82;4.10;;;10.70;99.90;;;;;;5029989;28;20026;-73
2024/02/18 08:25:33;;;;;;;7.78;4.07;;;10.70;99.90;;;;;;5027934;28;20029;-74
2024/02/18 08:28:00;;;;;;;10.90;3.75;;;10.80;99.90;;;;;;5026794;28;20167;-73
2024/02/18 08:30:25;;;;;;;9.75;3.40;;;10.80;99.90;;;;;;5031518;28;20021;-73
2024/02/18 08:32:51;;;;;;;11.50;3.92;;;10.90;99.90;;;;;;5031221;28;20156;-72
2024/02/18 08:35:17;;;;;;;15.27;4.13;;;10.80;99.90;;;;;;5032040;28;20402;-73
2024/02/18 08:37:44;;;;;;;12.63;4.30;;;10.80;99.90;;;;;;5032541;28;20025;-73
2024/02/18 08:40:10;;;;;;;12.15;3.67;;;10.90;99.90;;;;;;5032337;28;20486;-73
2024/02/18 08:42:36;;;;;;;7.47;3.50;;;10.90;99.90;;;;;;5031380;28;20033;-73
2024/02/18 08:45:02;;;;;;;10.85;3.58;;;10.90;99.90;;;;;;5032404;28;20033;-73
2024/02/18 08:47:28;;;;;;;7.82;3.67;;;10.80;99.90;;;;;;5031995;28;20053;-74
2024/02/18 08:49:54;;;;;;;8.13;3.47;;;10.90;99.90;;;;;;5032268;28;20044;-75
2024/02/18 08:52:19;;;;;;;10.43;3.95;;;10.80;99.90;;;;;;5031998;28;20029;-76
2024/02/18 08:54:45;;;;;;;7.78;3.63;;;10.80;99.90;;;;;;5031575;28;20030;-78
2024/02/18 08:57:12;;;;;;;12.40;4.55;;;10.80;99.90;;;;;;5029636;28;20024;-75
2024/02/18 08:59:38;;;;;;;12.13;3.53;;;10.70;99.90;;;;;;5022773;28;20041;-76
2024/02/18 09:02:03;;;;;;;8.25;3.28;;;10.70;99.90;;;;;;5024922;28;20034;-77
2024/02/18 09:04:29;;;;;;;10.18;2.88;;;10.70;99.90;;;;;;5030572;28;20137;-73
2024/02/18 09:06:55;;;;;;;6.82;2.85;;;10.80;99.90;;;;;;5006191;28;20041;-74
2024/02/18 09:09:22;;;;;;;8.55;3.65;;;10.70;99.90;;;;;;5003394;28;20040;-73
2024/02/18 09:11:47;;;;;;;13.82;6.75;;;10.80;99.90;;;;;;5031126;28;20030;-73
2024/02/18 09:14:22;;;;;;;8.07;3.05;;;10.80;99.90;;;;;;5039421;28;20025;-78
2024/02/18 09:16:49;;;;;;;14.00;3.65;;;10.80;99.90;;;;;;5033523;28;20544;-75
2024/02/18 09:19:14;;;;;;;9.93;3.13;;;10.80;99.90;;;;;;5039310;28;20026;-76
2024/02/18 09:21:40;;;;;;;7.57;3.35;;;10.70;99.90;;;;;;5034693;28;20544;-78
2024/02/18 09:24:06;;;;;;;7.20;2.92;;;10.70;99.90;;;;;;5038862;28;20039;-77
2024/02/18 09:26:31;;;;;;;8.63;2.92;;;10.80;99.90;;;;;;5036611;28;20017;-77
2024/02/18 09:28:57;;;;;;;7.15;2.88;;;10.80;99.90;;;;;;5038915;28;20025;-78
2024/02/18 09:31:23;;;;;;;8.80;2.92;;;10.70;99.90;;;;;;5038186;28;20049;-74
2024/02/18 09:33:49;;;;;;;10.10;3.53;;;10.70;99.90;;;;;;5037845;28;20025;-77
2024/02/18 09:36:15;;;;;;;14.50;3.70;;;10.70;99.90;;;;;;5033200;28;20029;-75
2024/02/18 09:38:41;;;;;;;13.13;2.92;;;10.70;99.90;;;;;;5032705;28;20088;-77
2024/02/18 09:41:14;;;;;;;8.88;3.22;;;10.80;99.90;;;;;;5039693;28;20029;-76
2024/02/18 09:43:42;;;;;;;11.85;3.65;;;10.70;99.90;;;;;;5034387;28;20025;-76
2024/02/18 09:46:08;;;;;;;11.38;3.17;;;10.60;99.90;;;;;;5035781;28;20117;-77
2024/02/18 09:48:36;;;;;;;6.85;3.03;;;10.70;99.90;;;;;;5032123;28;20021;-78
2024/02/18 09:51:06;;;;;;;9.45;3.22;;;10.70;99.90;;;;;;5032674;28;20099;-73
2024/02/18 09:53:33;;;;;;;10.07;2.65;;;10.70;99.90;;;;;;5035789;28;20409;-74
2024/02/18 09:56:00;;;;;;;10.48;3.05;;;10.70;99.90;;;;;;5037889;28;20013;-77
2024/02/18 09:58:26;;;;;;;8.85;3.50;;;10.80;99.90;;;;;;5035381;28;20034;-77
2024/02/18 10:00:53;;;;;;;6.63;3.00;;;10.80;99.90;;;;;;5033581;28;20430;-76
2024/02/18 10:03:19;;;;;;;12.68;3.88;;;10.80;99.90;;;;;;5034158;28;20029;-75
2024/02/18 10:05:45;;;;;;;10.68;4.95;;;10.80;99.90;;;;;;5033711;28;20036;-76
2024/02/18 10:08:11;;;;;;;8.35;3.58;;;10.80;99.90;;;;;;5038430;28;20478;-76
2024/02/18 10:10:36;;;;;;;10.70;3.83;;;10.90;99.90;;;;;;5037421;28;20474;-73
2024/02/18 10:13:04;;;;;;;7.22;3.03;;;10.90;99.90;;;;;;5038333;28;20017;-74
2024/02/18 10:15:33;;;;;;;6.38;2.58;;;10.90;99.90;;;;;;5032799;28;20033;-73
2024/02/18 10:17:59;;;;;;;10.85;3.35;;;10.90;99.90;;;;;;5037625;28;20087;-76
2024/02/18 10:20:32;;;;;;;8.40;3.08;;;10.90;99.90;;;;;;5033318;28;20033;-76
2024/02/18 10:22:58;;;;;;;7.75;2.97;;;10.90;99.90;;;;;;5041998;28;20020;-76
2024/02/18 10:25:24;;;;;;;7.70;2.83;;;10.80;99.90;;;;;;5034849;28;20025;-76
2024/02/18 10:27:55;;;;;;;6.07;2.72;;;10.80;99.90;;;;;;5034852;28;20025;-77
2024/02/18 10:30:20;;;;;;;4.82;2.50;;;10.70;99.90;;;;;;5034043;28;20520;-74
2024/02/18 10:32:46;;;;;;;7.55;2.80;;;10.80;99.90;;;;;;5035240;28;20045;-74
2024/02/18 10:35:12;;;;;;;13.45;3.47;;;11.00;99.90;;;;;;5040652;28;20390;-72
2024/02/18 10:37:39;;;;;;;6.80;3.38;;;11.00;99.90;;;;;;5035244;28;20057;-73
2024/02/18 10:40:13;;;;;;;9.45;2.83;;;11.00;99.90;;;;;;5040648;28;20079;-74
2024/02/18 10:42:43;;;;;;;11.35;3.15;;;11.00;99.90;;;;;;5038698;28;20044;-73
2024/02/18 10:45:11;;;;;;;7.10;3.72;;;11.00;99.90;;;;;;5040702;28;20044;-75
2024/02/18 10:47:41;;;;;;;7.07;2.80;;;10.90;99.90;;;;;;5038407;28;20497;-75
2024/02/18 10:50:07;;;;;;;7.15;4.05;;;10.90;99.90;;;;;;5040751;28;20037;-74
2024/02/18 10:52:46;;;;;;;5.53;2.45;;;11.10;99.90;;;;;;5042943;28;20494;-72
2024/02/18 10:55:19;;;;;;;5.85;3.15;;;11.00;99.90;;;;;;5042235;28;20025;-73
2024/02/18 10:58:16;;;;;;;7.35;2.67;;;11.10;99.90;;;;;;5039407;28;20032;-73
2024/02/18 11:00:45;;;;;;;7.00;2.58;;;11.10;99.90;;;;;;5038303;28;20502;-73
2024/02/18 11:03:36;;;;;;;8.82;3.47;;;11.00;99.90;;;;;;5034952;28;20498;-72
2024/02/18 11:06:03;;;;;;;9.57;2.90;;;11.10;99.90;;;;;;5037126;28;20029;-73
2024/02/18 11:08:31;;;;;;;8.60;2.40;;;11.10;99.90;;;;;;5039274;28;20041;-74
2024/02/18 11:10:58;;;;;;;6.60;2.90;;;11.00;99.90;;;;;;5040419;28;20111;-73
2024/02/18 11:13:25;;;;;;;6.57;2.78;;;11.00;99.90;;;;;;5038788;28;20025;-73
2024/02/18 11:15:51;;;;;;;7.55;2.75;;;11.10;99.90;;;;;;5039360;28;20162;-73
2024/02/18 11:18:17;;;;;;;5.20;2.42;;;11.00;99.90;;;;;;5039864;28;20109;-73
2024/02/18 11:20:44;;;;;;;8.18;2.53;;;11.00;99.90;;;;;;5042063;28;20021;-73
2024/02/18 11:23:10;;;;;;;6.55;2.78;;;11.20;99.90;;;;;;5037023;28;20428;-73
2024/02/18 11:25:36;;;;;;;7.07;2.85;;;11.20;99.90;;;;;;5042159;28;20600;-73
2024/02/18 11:28:02;;;;;;;5.40;2.58;;;11.10;99.90;;;;;;5035822;28;20021;-73
2024/02/18 11:30:28;;;;;;;8.15;3.00;;;11.20;99.90;;;;;;5039524;28;20041;-74
2024/02/18 11:32:54;;;;;;;12.13;2.78;;;11.20;99.90;;;;;;5040221;28;20036;-73
2024/02/18 11:35:20;;;;;;;7.82;2.47;;;11.20;99.90;;;;;;5038192;28;20433;-74
2024/02/18 11:37:47;;;;;;;6.20;2.42;;;11.20;99.90;;;;;;5039553;28;20021;-74
2024/02/18 11:40:18;;;;;;;8.65;2.65;;;11.20;99.90;;;;;;5037857;28;20039;-74
2024/02/18 11:42:45;;;;;;;3.70;1.90;;;11.10;99.90;;;;;;5040491;28;20478;-73
2024/02/18 11:45:13;;;;;;;6.22;2.55;;;11.20;99.90;;;;;;5038952;28;23008;-72
2024/02/18 11:47:47;;;;;;;4.40;2.22;;;11.20;99.90;;;;;;5040104;28;20013;-74
2024/02/18 11:50:14;;;;;;;7.63;2.58;;;11.10;99.90;;;;;;5042205;28;20372;-73
2024/02/18 11:52:42;;;;;;;6.07;2.40;;;11.20;99.90;;;;;;5042646;28;20033;-74
2024/02/18 11:55:11;;;;;;;7.88;3.08;;;11.20;99.90;;;;;;5042300;28;20031;-73
2024/02/18 11:57:37;;;;;;;8.50;2.22;;;11.30;99.90;;;;;;5032758;28;20033;-73
2024/02/18 12:00:03;;;;;;;5.30;2.00;;;11.30;99.90;;;;;;5032261;28;20028;-73
2024/02/18 12:02:30;;;;;;;10.27;2.30;;;11.30;99.90;;;;;;5032950;28;20498;-74
2024/02/18 12:04:57;;;;;;;8.38;2.20;;;11.30;99.90;;;;;;5039348;28;20040;-73
2024/02/18 12:07:30;;;;;;;7.35;1.80;;;11.40;99.90;;;;;;5035198;28;20029;-75
2024/02/18 12:10:00;;;;;;;6.45;2.13;;;11.40;99.90;;;;;;5033247;28;20033;-73
2024/02/18 12:12:28;;;;;;;8.20;2.15;;;11.40;99.90;;;;;;5032272;28;20018;-74
2024/02/18 12:14:55;;;;;;;8.45;2.70;;;11.40;99.90;;;;;;5037411;28;20033;-74
2024/02/18 12:17:22;;;;;;;5.72;1.83;;;11.30;99.90;;;;;;5035921;28;20025;-75
2024/02/18 12:19:52;;;;;;;6.38;2.17;;;11.40;99.90;;;;;;5040016;28;20502;-75
2024/02/18 12:22:27;;;;;;;11.27;2.20;;;11.40;99.90;;;;;;5037910;28;20041;-75
2024/02/18 12:24:56;;;;;;;6.60;2.60;;;11.30;99.90;;;;;;5034398;28;20486;-74
2024/02/18 12:27:22;;;;;;;9.80;2.50;;;11.40;99.90;;;;;;5034623;28;20026;-74
2024/02/18 12:29:50;;;;;;;7.78;2.25;;;11.40;99.90;;;;;;5039913;28;20017;-76
2024/02/18 12:32:17;;;;;;;6.70;2.95;;;11.30;99.90;;;;;;5032708;28;20498;-75
2024/02/18 12:34:44;;;;;;;9.25;2.42;;;11.30;99.90;;;;;;5038905;28;20029;-75
2024/02/18 12:37:11;;;;;;;5.65;2.05;;;11.30;99.90;;;;;;5033783;28;20020;-76
2024/02/18 12:39:37;;;;;;;7.60;2.67;;;11.20;99.90;;;;;;5035542;28;20040;-76